INFORMACIÓN METAR y TAF
METAR FOR ESNX
ADDS - METARS form results

(0715 UTC 17 September 2019)
Data provider http://aviationweather.gov/metar/data/
 
METAR text: ESNX 170650Z 36005KT 9999 SCT008 BKN012 05/04 Q0999
Conditions at: ESNX (ARVIDSJAUR , SE) observed 0650 UTC 17 September 2019
Temperature: 5.0°C (41°F)
Dewpoint: 4.0°C (39°F) [RH = 93%]
Pressure (altimeter): 29.50 inches Hg (999.0 mb)
Winds: from the N (360 degrees) at 6 MPH (5 knots; 2.6 m/s)
Visibility: 6 or more miles (10+ km)
Ceiling: 1200 feet AGL
Clouds: scattered clouds at 800 feet AGL
broken clouds at 1200 feet AGL
Weather: no significant weather observed at this time

METAR text: ESNX 170620Z AUTO 35004KT 9999 FEW006/// BKN014/// OVC098/// 04/03 Q0999
Conditions at: ESNX (ARVIDSJAUR , SE) observed 0620 UTC 17 September 2019
Temperature: 4.0°C (39°F)
Dewpoint: 3.0°C (37°F) [RH = 93%]
Pressure (altimeter): 29.50 inches Hg (999.0 mb)
Winds: from the N (350 degrees) at 5 MPH (4 knots; 2.1 m/s)
Visibility: 6 or more miles (10+ km)
Ceiling: 1400 feet AGL
Clouds: few clouds at 600 feet AGL
broken clouds at 1400 feet AGL
overcast cloud deck at 9800 feet AGL
Weather: no significant weather observed at this time

Forecast for: ESNX (ARVIDSJAUR , SE)
Text: TAF ESNX 170530Z 1706/1710 31006KT 4500 BKN003
Forecast period: 0600 to 1000 UTC 17 September 2019
Forecast type: FROM: standard forecast or significant change
Winds: from the NW (310 degrees) at 7 MPH (6 knots; 3.1 m/s)
Visibility: 2.80 miles (4.51 km)
Ceiling: 300 feet AGL
Clouds: broken clouds at 300 feet AGL
Weather: no significant weather forecast for this period
Text: TEMPO 1706/1710 9999 BKN010
Forecast period: 0600 to 1000 UTC 17 September 2019
Forecast type: TEMPORARY: The following changes expected for less than half the time period
Visibility: 6 or more miles 10+ km)
Ceiling: 1000 feet AGL
Clouds: broken clouds at 1000 feet AGL
Weather: no significant weather forecast for this period

 MAPA DE AEROPUERTO

 INFORMACIÓN DE PISTA
Pista 12 Longitud 8201 ft Ancho 148 ft
Elevación 1241 ft Umbral desplazado 0 ft Rumbo de pista 128
Pista 30 Longitud 8201 ft Ancho 148 ft
Elevación 1240 ft Umbral desplazado 0 ft Rumbo de pista 308

 FRECUANCIAS DEL AEROPUERTO
Tipo AFIS Nombre AFIS Frecuencia 123 MHZ
Tipo TWR Nombre TWR Frecuencia 123 MHZ

 RADIO AYUDAS DEL AEROPUERTO
Tipo NDB Nombre Arvidsjaur Frecuencia 381 KHZ



Powered by Virtual Airlines Manager [v2.6.2]